createdAt,value
2023-03-06T00:01:51.917Z,4.15
2023-03-06T00:04:19.257Z,4.95
2023-03-06T00:06:45.567Z,3.67
2023-03-06T00:09:11.979Z,3.90
2023-03-06T00:11:38.294Z,4.60
2023-03-06T00:14:04.596Z,3.90
2023-03-06T00:16:30.917Z,4.82
2023-03-06T00:18:57.209Z,4.80
2023-03-06T00:21:23.520Z,5.80
2023-03-06T00:23:49.817Z,4.32
2023-03-06T00:26:16.269Z,5.37
2023-03-06T00:28:42.631Z,5.07
2023-03-06T00:31:08.988Z,4.72
2023-03-06T00:33:35.333Z,5.57
2023-03-06T00:36:01.638Z,8.10
2023-03-06T00:38:31.612Z,5.05
2023-03-06T00:40:57.981Z,5.78
2023-03-06T00:43:24.309Z,4.00
2023-03-06T00:45:50.707Z,4.60
2023-03-06T00:48:17.053Z,6.00
2023-03-06T00:50:43.370Z,5.37
2023-03-06T00:53:11.157Z,6.22
2023-03-06T00:55:37.568Z,5.68
2023-03-06T00:58:03.890Z,5.75
2023-03-06T01:00:30.215Z,4.50
2023-03-06T01:02:56.584Z,5.12
2023-03-06T01:05:22.983Z,4.68
2023-03-06T01:07:49.289Z,5.35
2023-03-06T01:10:15.618Z,5.40
2023-03-06T01:12:41.976Z,4.82
2023-03-06T01:15:08.310Z,4.80
2023-03-06T01:17:34.642Z,6.07
2023-03-06T01:20:01.039Z,6.43
2023-03-06T01:22:27.362Z,6.25
2023-03-06T01:24:53.655Z,4.85
2023-03-06T01:27:19.951Z,4.82
2023-03-06T01:29:46.254Z,5.85
2023-03-06T01:32:12.586Z,5.95
2023-03-06T01:34:38.906Z,6.93
2023-03-06T01:37:05.209Z,5.55
2023-03-06T01:39:31.702Z,7.03
2023-03-06T01:41:58.023Z,5.82
2023-03-06T01:44:24.370Z,6.80
2023-03-06T01:46:50.685Z,6.45
2023-03-06T01:49:17.017Z,6.78
2023-03-06T01:51:43.342Z,6.37
2023-03-06T01:54:09.718Z,6.03
2023-03-06T01:56:36.087Z,5.62
2023-03-06T01:59:02.427Z,7.70
2023-03-06T02:01:28.845Z,6.95
2023-03-06T02:03:55.183Z,5.70
2023-03-06T02:06:22.027Z,6.28
2023-03-06T02:08:48.369Z,6.70
2023-03-06T02:11:14.729Z,6.47
2023-03-06T02:13:41.106Z,7.05
2023-03-06T02:16:08.784Z,8.02
2023-03-06T02:18:35.152Z,6.97
2023-03-06T02:21:01.489Z,7.03
2023-03-06T02:23:27.802Z,6.03
2023-03-06T02:25:54.107Z,8.70
2023-03-06T02:28:20.480Z,6.12
2023-03-06T02:30:47.083Z,5.95
2023-03-06T02:33:13.437Z,6.18
2023-03-06T02:35:39.769Z,7.87
2023-03-06T02:38:06.104Z,7.25
2023-03-06T02:40:32.425Z,6.78
2023-03-06T02:42:58.751Z,10.15
2023-03-06T02:45:25.111Z,7.40
2023-03-06T02:47:51.422Z,8.95
2023-03-06T02:50:17.731Z,10.13
2023-03-06T02:52:44.075Z,7.43
2023-03-06T02:55:10.392Z,9.10
2023-03-06T02:57:36.768Z,9.02
2023-03-06T03:00:03.162Z,7.93
2023-03-06T03:02:29.511Z,9.45
2023-03-06T03:04:55.906Z,9.13
2023-03-06T03:07:22.229Z,10.02
2023-03-06T03:09:48.610Z,8.55
2023-03-06T03:12:14.930Z,7.80
2023-03-06T03:14:41.227Z,8.15
2023-03-06T03:17:07.529Z,8.15
2023-03-06T03:19:33.873Z,7.57
2023-03-06T03:22:00.214Z,8.70
2023-03-06T03:24:26.592Z,7.87
2023-03-06T03:26:53.080Z,7.57
2023-03-06T03:29:19.397Z,7.20
2023-03-06T03:31:45.729Z,9.43
2023-03-06T03:34:12.051Z,8.40
2023-03-06T03:36:38.335Z,7.87
2023-03-06T03:39:04.654Z,8.32
2023-03-06T03:41:31.002Z,9.38
2023-03-06T03:43:57.333Z,7.72
2023-03-06T03:46:23.683Z,8.98
2023-03-06T03:48:50.048Z,9.20
2023-03-06T03:51:16.686Z,9.88
2023-03-06T03:53:43.051Z,8.10
2023-03-06T03:56:09.365Z,8.40
2023-03-06T03:58:35.667Z,8.43
2023-03-06T04:01:02.012Z,7.47
2023-03-06T04:03:28.325Z,8.98
2023-03-06T04:05:55.537Z,8.10
2023-03-06T04:08:21.896Z,8.23
2023-03-06T04:10:48.196Z,9.00
2023-03-06T04:13:14.569Z,6.85
2023-03-06T04:15:40.876Z,8.38
2023-03-06T04:18:07.196Z,10.48
2023-03-06T04:20:33.546Z,7.55
2023-03-06T04:22:59.893Z,7.87
2023-03-06T04:25:26.243Z,7.95
2023-03-06T04:27:52.601Z,7.45
2023-03-06T04:30:18.940Z,8.48
2023-03-06T04:32:45.321Z,8.80
2023-03-06T04:35:12.178Z,11.77
2023-03-06T04:37:38.505Z,8.30
2023-03-06T04:40:04.830Z,8.50
2023-03-06T04:42:31.393Z,8.23
2023-03-06T04:44:57.697Z,8.02
2023-03-06T04:47:24.089Z,8.15
2023-03-06T04:49:50.422Z,7.60
2023-03-06T04:52:16.754Z,8.35
2023-03-06T04:54:43.232Z,8.18
2023-03-06T04:57:09.596Z,8.60
2023-03-06T04:59:38.743Z,9.23
2023-03-06T05:02:05.506Z,10.02
2023-03-06T05:04:31.805Z,8.85
2023-03-06T05:06:58.118Z,8.30
2023-03-06T05:09:24.447Z,8.98
2023-03-06T05:11:50.771Z,7.35
2023-03-06T05:14:17.111Z,8.85
2023-03-06T05:16:43.558Z,10.35
2023-03-06T05:19:09.950Z,10.85
2023-03-06T05:21:36.269Z,9.38
2023-03-06T05:24:02.556Z,8.02
2023-03-06T05:26:28.910Z,10.30
2023-03-06T05:28:55.509Z,10.23
2023-03-06T05:31:21.840Z,9.55
2023-03-06T05:33:48.196Z,7.55
2023-03-06T05:36:14.534Z,9.55
2023-03-06T05:38:40.890Z,8.00
2023-03-06T05:41:07.198Z,8.30
2023-03-06T05:43:33.529Z,9.82
2023-03-06T05:45:59.858Z,10.30
2023-03-06T05:48:26.206Z,13.10
2023-03-06T05:50:52.514Z,10.80
2023-03-06T05:53:18.869Z,8.57
2023-03-06T05:55:45.249Z,12.35
2023-03-06T05:58:11.578Z,9.98
2023-03-06T06:00:37.937Z,9.65
2023-03-06T06:03:04.355Z,11.20
2023-03-06T06:05:30.715Z,9.88
2023-03-06T06:07:57.024Z,10.15
2023-03-06T06:10:23.323Z,11.05
2023-03-06T06:12:49.652Z,10.15
2023-03-06T06:15:15.984Z,9.30
2023-03-06T06:17:42.336Z,10.45
2023-03-06T06:20:08.666Z,8.60
2023-03-06T06:22:34.988Z,11.20
2023-03-06T06:25:01.295Z,12.02
2023-03-06T06:27:27.629Z,10.93
2023-03-06T06:29:53.956Z,10.38
2023-03-06T06:32:20.438Z,9.88
2023-03-06T06:34:46.806Z,11.30
2023-03-06T06:37:13.113Z,11.32
2023-03-06T06:39:39.456Z,9.23
2023-03-06T06:42:28.933Z,12.73
2023-03-06T06:44:52.401Z,12.45
2023-03-06T06:47:23.089Z,11.63
2023-03-06T06:49:51.116Z,11.68
2023-03-06T06:52:18.961Z,10.65
2023-03-06T06:54:45.353Z,10.18
2023-03-06T06:57:11.753Z,11.68
2023-03-06T06:59:38.064Z,9.98
2023-03-06T07:02:04.476Z,11.60
2023-03-06T07:04:30.798Z,9.95
2023-03-06T07:06:57.162Z,11.55
2023-03-06T07:09:23.783Z,11.65
2023-03-06T07:11:50.135Z,10.82
2023-03-06T07:14:16.525Z,9.82
2023-03-06T07:16:42.892Z,11.40
2023-03-06T07:19:09.261Z,12.80
2023-03-06T07:21:35.631Z,11.32
2023-03-06T07:24:01.937Z,10.05
2023-03-06T07:26:28.260Z,12.32
2023-03-06T07:28:55.068Z,10.98
2023-03-06T07:31:22.259Z,11.73
2023-03-06T07:33:48.638Z,10.43
2023-03-06T07:36:15.021Z,11.07
2023-03-06T07:38:41.399Z,12.52
2023-03-06T07:41:13.312Z,13.00
2023-03-06T07:43:39.635Z,12.43
2023-03-06T07:46:05.970Z,12.23
2023-03-06T07:48:32.362Z,13.07
2023-03-06T07:50:58.722Z,12.55
2023-03-06T07:53:26.026Z,12.10
2023-03-06T07:55:52.354Z,12.30
2023-03-06T07:58:18.676Z,11.43
2023-03-06T08:00:45.002Z,13.85
2023-03-06T08:03:11.425Z,12.80
2023-03-06T08:05:37.808Z,10.93
2023-03-06T08:08:04.148Z,13.55
2023-03-06T08:10:30.465Z,10.23
2023-03-06T08:12:56.835Z,10.90
2023-03-06T08:15:23.168Z,12.37
2023-03-06T08:17:49.527Z,14.05
2023-03-06T08:20:16.243Z,10.98
2023-03-06T08:22:42.657Z,12.25
2023-03-06T08:25:09.002Z,11.93
2023-03-06T08:27:35.323Z,11.10
2023-03-06T08:30:01.629Z,11.35
2023-03-06T08:32:28.136Z,10.95
2023-03-06T08:34:54.474Z,12.35
2023-03-06T08:37:20.888Z,14.02
2023-03-06T08:39:47.298Z,12.52
2023-03-06T08:42:14.536Z,11.63
2023-03-06T08:44:40.845Z,13.65
2023-03-06T08:47:07.353Z,9.95
2023-03-06T08:49:33.776Z,10.48
2023-03-06T08:52:00.156Z,13.48
2023-03-06T08:54:26.464Z,13.40
2023-03-06T08:56:53.258Z,12.60
2023-03-06T08:59:19.571Z,11.93
2023-03-06T09:01:46.745Z,13.60
2023-03-06T09:04:13.057Z,11.77
2023-03-06T09:06:39.446Z,13.68
2023-03-06T09:09:05.985Z,13.50
2023-03-06T09:11:32.354Z,11.60
2023-03-06T09:13:58.756Z,14.57
2023-03-06T09:16:25.218Z,11.80
2023-03-06T09:18:54.108Z,13.40
2023-03-06T09:21:20.454Z,13.18
2023-03-06T09:23:46.824Z,15.40
2023-03-06T09:26:13.142Z,13.75
2023-03-06T09:28:39.450Z,13.73
2023-03-06T09:31:05.790Z,14.93
2023-03-06T09:33:33.384Z,11.12
2023-03-06T09:35:59.834Z,13.38
2023-03-06T09:38:26.278Z,14.35
2023-03-06T09:40:52.645Z,13.70
2023-03-06T09:43:18.941Z,15.15
2023-03-06T09:45:45.284Z,15.75
2023-03-06T09:48:11.633Z,13.57
2023-03-06T09:50:37.975Z,13.88
2023-03-06T09:53:04.339Z,15.10
2023-03-06T09:55:30.678Z,14.30
2023-03-06T09:57:57.094Z,13.73
2023-03-06T10:00:23.415Z,16.90
2023-03-06T10:02:49.850Z,13.85
2023-03-06T10:05:16.301Z,15.23
2023-03-06T10:07:43.018Z,14.98
2023-03-06T10:10:09.341Z,13.48
2023-03-06T10:12:35.692Z,13.70
2023-03-06T10:15:02.021Z,13.82
2023-03-06T10:17:28.401Z,13.30
2023-03-06T10:19:54.724Z,13.65
2023-03-06T10:22:21.091Z,12.43
2023-03-06T10:24:47.415Z,12.35
2023-03-06T10:27:13.758Z,13.82
2023-03-06T10:29:41.058Z,15.32
2023-03-06T10:32:07.462Z,14.13
2023-03-06T10:34:33.853Z,15.65
2023-03-06T10:37:00.208Z,14.10
2023-03-06T10:39:28.441Z,14.50
2023-03-06T10:41:54.764Z,14.55
2023-03-06T10:44:21.754Z,15.07
2023-03-06T10:46:48.211Z,15.73
2023-03-06T10:49:14.533Z,14.90
2023-03-06T10:51:40.892Z,16.00
2023-03-06T10:54:07.206Z,16.40
2023-03-06T10:56:33.566Z,13.45
2023-03-06T10:58:59.878Z,14.32
2023-03-06T11:01:26.347Z,18.87
2023-03-06T11:03:54.186Z,15.55
2023-03-06T11:06:20.516Z,18.15
2023-03-06T11:08:46.821Z,16.05
2023-03-06T11:11:13.112Z,16.40
2023-03-06T11:13:39.432Z,14.38
2023-03-06T11:16:05.902Z,16.60
2023-03-06T11:18:35.166Z,14.63
2023-03-06T11:21:01.471Z,15.98
2023-03-06T11:23:27.792Z,15.48
2023-03-06T11:25:54.111Z,18.17
2023-03-06T11:28:20.429Z,17.98
2023-03-06T11:30:46.875Z,15.82
2023-03-06T11:33:13.213Z,15.70
2023-03-06T11:35:39.610Z,16.95
2023-03-06T11:38:07.040Z,16.33
2023-03-06T11:40:33.494Z,20.10
2023-03-06T11:42:59.804Z,15.80
2023-03-06T11:45:26.242Z,19.05
2023-03-06T11:47:52.601Z,17.60
2023-03-06T11:50:19.016Z,18.75
2023-03-06T11:52:45.400Z,19.95
2023-03-06T11:55:11.720Z,20.67
2023-03-06T11:57:38.034Z,20.98
2023-03-06T12:00:04.391Z,17.67
2023-03-06T12:02:30.803Z,20.37
2023-03-06T12:04:57.203Z,18.30
2023-03-06T12:07:23.576Z,19.00
2023-03-06T12:09:49.898Z,16.58
2023-03-06T12:14:42.531Z,18.42
2023-03-06T12:17:08.892Z,17.45
2023-03-06T12:19:35.204Z,17.30
2023-03-06T12:22:01.771Z,17.48
2023-03-06T12:24:28.065Z,18.00
2023-03-06T12:26:54.392Z,20.27
2023-03-06T12:29:20.738Z,17.27
2023-03-06T12:31:47.200Z,17.65
2023-03-06T12:34:13.580Z,19.30
2023-03-06T12:36:39.967Z,16.92
2023-03-06T12:39:06.307Z,17.58
2023-03-06T12:41:32.631Z,15.75
2023-03-06T12:43:59.012Z,18.20
2023-03-06T12:46:25.348Z,18.52
2023-03-06T12:48:51.865Z,18.10
2023-03-06T12:51:18.210Z,15.98
2023-03-06T12:53:44.525Z,16.90
2023-03-06T12:56:10.867Z,18.35
2023-03-06T12:58:37.214Z,17.65
2023-03-06T13:01:06.040Z,17.37
2023-03-06T13:03:32.446Z,16.30
2023-03-06T13:05:58.761Z,15.88
2023-03-06T13:08:25.365Z,17.23
2023-03-06T13:10:51.710Z,15.75
2023-03-06T13:13:18.083Z,14.32
2023-03-06T13:15:45.603Z,14.70
2023-03-06T13:18:11.962Z,18.45
2023-03-06T13:20:38.588Z,16.70
2023-03-06T13:23:04.949Z,17.33
2023-03-06T13:25:32.672Z,17.45
2023-03-06T13:27:59.010Z,17.20
2023-03-06T13:30:27.233Z,19.95
2023-03-06T13:32:53.648Z,18.33
2023-03-06T13:35:20.077Z,18.23
2023-03-06T13:37:46.481Z,18.55
2023-03-06T13:40:12.794Z,17.45
2023-03-06T13:42:39.778Z,19.90
2023-03-06T13:45:06.140Z,17.90
2023-03-06T13:47:32.520Z,18.95
2023-03-06T13:49:58.861Z,20.65
2023-03-06T13:52:25.392Z,18.12
2023-03-06T13:54:51.695Z,20.67
2023-03-06T13:57:18.020Z,19.00
2023-03-06T13:59:44.320Z,16.85
2023-03-06T14:02:10.636Z,18.52
2023-03-06T14:04:36.994Z,18.50
2023-03-06T14:07:05.478Z,17.75
2023-03-06T14:09:32.532Z,17.00
2023-03-06T14:11:58.920Z,19.92
2023-03-06T14:14:25.236Z,17.15
2023-03-06T14:16:53.590Z,17.73
2023-03-06T14:19:20.101Z,17.17
2023-03-06T14:21:46.493Z,17.40
2023-03-06T14:24:12.959Z,20.25
2023-03-06T14:26:39.295Z,18.23
2023-03-06T14:29:05.613Z,17.85
2023-03-06T14:31:32.060Z,16.92
2023-03-06T14:33:58.644Z,16.10
2023-03-06T14:36:24.977Z,18.50
2023-03-06T14:38:51.311Z,16.20
2023-03-06T14:41:17.645Z,15.90
2023-03-06T14:43:43.956Z,17.00
2023-03-06T14:46:10.388Z,17.00
2023-03-06T14:48:38.572Z,17.08
2023-03-06T14:51:04.912Z,16.77
2023-03-06T14:53:31.344Z,16.30
2023-03-06T14:55:59.027Z,15.90
2023-03-06T14:58:25.339Z,15.90
2023-03-06T15:00:51.736Z,12.82
2023-03-06T15:03:18.264Z,15.45
2023-03-06T15:05:44.642Z,14.52
2023-03-06T15:08:11.266Z,15.10
2023-03-06T15:10:37.649Z,16.12
2023-03-06T15:13:03.966Z,13.77
2023-03-06T15:15:30.340Z,12.70
2023-03-06T15:17:56.726Z,13.20
2023-03-06T15:20:23.028Z,12.98
2023-03-06T15:22:49.347Z,12.27
2023-03-06T15:25:15.655Z,12.65
2023-03-06T15:27:41.967Z,10.10
2023-03-06T15:30:08.287Z,10.68
2023-03-06T15:32:34.744Z,10.48
2023-03-06T15:35:01.099Z,11.48
2023-03-06T15:37:27.681Z,12.18
2023-03-06T15:39:53.991Z,10.27
2023-03-06T15:42:20.484Z,9.68
2023-03-06T15:44:46.839Z,10.95
2023-03-06T15:47:13.163Z,10.20
2023-03-06T15:49:39.518Z,12.07
2023-03-06T15:52:05.850Z,10.13
2023-03-06T15:54:33.107Z,10.40
2023-03-06T15:56:59.550Z,9.95
2023-03-06T15:59:26.116Z,10.27
2023-03-06T16:01:52.461Z,10.10
2023-03-06T16:04:18.975Z,10.02
2023-03-06T16:06:45.935Z,9.57
2023-03-06T16:09:12.521Z,12.55
2023-03-06T16:11:44.081Z,11.98
2023-03-06T16:14:10.569Z,11.65
2023-03-06T16:16:36.960Z,14.77
2023-03-06T16:19:04.118Z,12.18
2023-03-06T16:21:31.380Z,15.52
2023-03-06T16:23:57.680Z,14.68
2023-03-06T16:26:24.006Z,14.05
2023-03-06T16:28:50.320Z,11.63
2023-03-06T16:31:16.698Z,14.18
2023-03-06T16:33:43.025Z,13.45
2023-03-06T16:36:09.382Z,14.43
2023-03-06T16:38:35.690Z,13.05
2023-03-06T16:41:01.985Z,12.18
2023-03-06T16:43:28.355Z,14.52
2023-03-06T16:45:54.753Z,13.20
2023-03-06T16:48:21.203Z,11.93
2023-03-06T16:50:47.600Z,11.48
2023-03-06T16:53:14.039Z,11.25
2023-03-06T16:55:40.352Z,10.65
2023-03-06T16:58:08.662Z,11.38
2023-03-06T17:00:34.960Z,11.65
2023-03-06T17:03:01.342Z,11.63
2023-03-06T17:05:27.963Z,10.63
2023-03-06T17:07:54.281Z,10.25
2023-03-06T17:10:22.815Z,10.32
2023-03-06T17:12:49.355Z,9.98
2023-03-06T17:15:15.801Z,10.50
2023-03-06T17:17:42.261Z,13.07
2023-03-06T17:20:08.595Z,12.88
2023-03-06T17:22:35.394Z,9.65
2023-03-06T17:25:01.752Z,10.10
2023-03-06T17:27:28.039Z,10.77
2023-03-06T17:29:54.355Z,13.88
2023-03-06T17:32:20.741Z,11.38
2023-03-06T17:34:47.066Z,10.60
2023-03-06T17:37:13.390Z,11.68
2023-03-06T17:39:39.743Z,12.45
2023-03-06T17:42:06.587Z,12.90
2023-03-06T17:44:32.919Z,12.15
2023-03-06T17:46:59.261Z,11.93
2023-03-06T17:49:25.602Z,11.52
2023-03-06T17:51:51.944Z,10.80
2023-03-06T17:54:18.345Z,11.80
2023-03-06T17:56:44.671Z,10.40
2023-03-06T17:59:11.004Z,11.02
2023-03-06T18:01:37.391Z,12.77
2023-03-06T18:04:03.931Z,11.25
2023-03-06T18:06:30.407Z,10.50
2023-03-06T18:08:56.731Z,12.48
2023-03-06T18:11:23.094Z,11.05
2023-03-06T18:13:49.417Z,12.73
2023-03-06T18:16:15.793Z,12.30
2023-03-06T18:18:42.237Z,12.60
2023-03-06T18:21:09.189Z,12.02
2023-03-06T18:23:36.150Z,12.93
2023-03-06T18:26:02.530Z,12.50
2023-03-06T18:28:30.806Z,13.02
2023-03-06T18:30:57.161Z,10.32
2023-03-06T18:33:23.470Z,11.60
2023-03-06T18:35:49.807Z,10.82
2023-03-06T18:38:16.174Z,12.02
2023-03-06T18:40:42.499Z,14.15
2023-03-06T18:43:08.874Z,15.20
2023-03-06T18:45:35.229Z,11.68
2023-03-06T18:48:01.616Z,10.93
2023-03-06T18:50:29.601Z,10.23
2023-03-06T18:52:55.927Z,12.82
2023-03-06T18:55:22.219Z,11.10
2023-03-06T18:57:48.544Z,11.05
2023-03-06T19:00:16.621Z,13.60
2023-03-06T19:02:42.938Z,12.40
2023-03-06T19:05:09.261Z,13.48
2023-03-06T19:07:35.610Z,12.23
2023-03-06T19:10:01.938Z,11.45
2023-03-06T19:12:28.256Z,13.82
2023-03-06T19:14:54.578Z,11.68
2023-03-06T19:17:20.888Z,14.90
2023-03-06T19:19:47.223Z,13.82
2023-03-06T19:22:13.526Z,13.65
2023-03-06T19:24:39.889Z,13.90
2023-03-06T19:27:06.244Z,14.05
2023-03-06T19:29:33.522Z,12.30
2023-03-06T19:32:00.028Z,12.75
2023-03-06T19:34:26.385Z,15.32
2023-03-06T19:36:52.786Z,12.43
2023-03-06T19:39:19.160Z,13.68
2023-03-06T19:41:45.473Z,13.85
2023-03-06T19:44:13.068Z,12.35
2023-03-06T19:46:40.799Z,13.65
2023-03-06T19:49:11.889Z,14.55
2023-03-06T19:51:38.215Z,12.63
2023-03-06T19:54:04.517Z,13.45
2023-03-06T19:56:31.983Z,13.48
2023-03-06T19:58:58.354Z,12.60
2023-03-06T20:01:25.127Z,15.60
2023-03-06T20:03:52.210Z,14.57
2023-03-06T20:06:18.646Z,12.65
2023-03-06T20:08:45.014Z,13.93
2023-03-06T20:11:11.363Z,13.50
2023-03-06T20:13:40.932Z,15.63
2023-03-06T20:16:11.000Z,15.75
2023-03-06T20:18:37.338Z,13.75
2023-03-06T20:21:03.730Z,13.93
2023-03-06T20:23:30.045Z,13.45
2023-03-06T20:25:56.578Z,12.57
2023-03-06T20:28:22.943Z,14.68
2023-03-06T20:30:49.477Z,15.30
2023-03-06T20:33:16.831Z,13.60
2023-03-06T20:35:43.234Z,13.18
2023-03-06T20:38:09.627Z,15.50
2023-03-06T20:40:35.956Z,15.55
2023-03-06T20:43:02.303Z,14.73
2023-03-06T20:45:28.591Z,15.65
2023-03-06T20:47:56.349Z,14.25
2023-03-06T20:50:22.658Z,14.25
2023-03-06T20:52:48.996Z,16.12
2023-03-06T20:55:15.496Z,16.10
2023-03-06T20:57:41.979Z,15.73
2023-03-06T21:00:09.154Z,15.43
2023-03-06T21:02:35.575Z,15.00
2023-03-06T21:05:03.016Z,16.45
2023-03-06T21:07:29.356Z,17.12
2023-03-06T21:09:55.704Z,15.50
2023-03-06T21:12:22.024Z,15.95
2023-03-06T21:14:48.360Z,16.40
2023-03-06T21:17:17.778Z,13.75
2023-03-06T21:19:44.380Z,15.48
2023-03-06T21:22:10.802Z,15.90
2023-03-06T21:24:37.184Z,17.20
2023-03-06T21:27:03.748Z,15.00
2023-03-06T21:29:30.057Z,13.45
2023-03-06T21:31:56.369Z,16.33
2023-03-06T21:34:22.724Z,14.77
2023-03-06T21:36:49.263Z,17.33
2023-03-06T21:39:15.734Z,16.70
2023-03-06T21:41:42.271Z,16.42
2023-03-06T21:44:08.726Z,16.25
2023-03-06T21:46:35.136Z,15.43
2023-03-06T21:49:01.474Z,16.70
2023-03-06T21:51:27.895Z,16.73
2023-03-06T21:53:54.377Z,18.00
2023-03-06T21:56:20.843Z,18.02
2023-03-06T21:58:47.352Z,15.20
2023-03-06T22:01:13.884Z,16.62
2023-03-06T22:03:40.196Z,15.38
2023-03-06T22:06:06.666Z,17.10
2023-03-06T22:08:33.903Z,15.32
2023-03-06T22:11:03.386Z,16.27
2023-03-06T22:13:29.767Z,17.42
2023-03-06T22:15:56.113Z,15.13
2023-03-06T22:18:22.435Z,16.85
2023-03-06T22:20:48.788Z,16.75
2023-03-06T22:23:15.178Z,16.73
2023-03-06T22:25:41.512Z,16.92
2023-03-06T22:28:07.851Z,16.67
2023-03-06T22:30:34.188Z,18.48
2023-03-06T22:33:00.580Z,18.17
2023-03-06T22:35:26.902Z,18.15
2023-03-06T22:37:53.296Z,16.67
2023-03-06T22:40:19.615Z,16.60
2023-03-06T22:42:45.975Z,19.85
2023-03-06T22:45:12.276Z,15.35
2023-03-06T22:47:38.594Z,16.67
2023-03-06T22:50:04.994Z,19.75
2023-03-06T22:52:31.312Z,17.20
2023-03-06T22:54:58.022Z,19.37
2023-03-06T22:57:24.341Z,18.70
2023-03-06T22:59:50.653Z,18.00
2023-03-06T23:02:16.970Z,17.50
2023-03-06T23:04:43.388Z,17.92
2023-03-06T23:07:09.860Z,16.85
2023-03-06T23:09:36.211Z,16.50
2023-03-06T23:12:02.540Z,16.45
2023-03-06T23:14:28.860Z,17.00
2023-03-06T23:16:55.195Z,18.23
2023-03-06T23:19:21.493Z,18.48
2023-03-06T23:21:47.779Z,19.08
2023-03-06T23:24:14.134Z,18.58
2023-03-06T23:26:40.798Z,15.63
2023-03-06T23:29:07.112Z,18.80
2023-03-06T23:31:33.434Z,17.90
2023-03-06T23:33:59.958Z,18.05
2023-03-06T23:36:26.251Z,18.62
2023-03-06T23:38:52.625Z,17.87
2023-03-06T23:41:18.950Z,18.23
2023-03-06T23:43:45.280Z,17.05
2023-03-06T23:46:11.655Z,17.17
2023-03-06T23:48:38.023Z,16.98
2023-03-06T23:51:04.353Z,15.95
2023-03-06T23:53:30.667Z,18.25
2023-03-06T23:55:57.363Z,17.17
2023-03-06T23:58:23.720Z,17.27
